sensor_id;sensor_type;location;lat;lon;timestamp;temperature;humidity
26575;DHT22;67165;50.256;10.978;2024-03-08T00:01:10;1.30;98.00
26575;DHT22;67165;50.256;10.978;2024-03-08T00:03:35;1.40;98.00
26575;DHT22;67165;50.256;10.978;2024-03-08T00:06:01;1.40;98.00
26575;DHT22;67165;50.256;10.978;2024-03-08T00:08:28;1.40;98.00
26575;DHT22;67165;50.256;10.978;2024-03-08T00:10:53;1.30;98.00
26575;DHT22;67165;50.256;10.978;2024-03-08T00:13:19;1.40;98.00
26575;DHT22;67165;50.256;10.978;2024-03-08T00:15:45;1.40;98.00
26575;DHT22;67165;50.256;10.978;2024-03-08T00:18:11;1.40;98.00
26575;DHT22;67165;50.256;10.978;2024-03-08T00:20:37;1.30;98.00
26575;DHT22;67165;50.256;10.978;2024-03-08T00:23:03;1.30;98.00
26575;DHT22;67165;50.256;10.978;2024-03-08T00:25:29;1.20;98.00
26575;DHT22;67165;50.256;10.978;2024-03-08T00:27:54;1.20;98.00
26575;DHT22;67165;50.256;10.978;2024-03-08T00:30:23;1.20;98.00
26575;DHT22;67165;50.256;10.978;2024-03-08T00:32:50;1.20;98.00
26575;DHT22;67165;50.256;10.978;2024-03-08T00:35:16;1.20;98.00
26575;DHT22;67165;50.256;10.978;2024-03-08T00:37:42;1.20;98.00
26575;DHT22;67165;50.256;10.978;2024-03-08T00:40:08;1.20;98.00
26575;DHT22;67165;50.256;10.978;2024-03-08T00:42:37;1.20;98.00
26575;DHT22;67165;50.256;10.978;2024-03-08T00:45:04;1.20;98.00
26575;DHT22;67165;50.256;10.978;2024-03-08T00:47:30;1.10;98.00
26575;DHT22;67165;50.256;10.978;2024-03-08T00:49:55;1.10;98.00
26575;DHT22;67165;50.256;10.978;2024-03-08T00:52:22;1.10;98.00
26575;DHT22;67165;50.256;10.978;2024-03-08T00:54:50;1.10;98.00
26575;DHT22;67165;50.256;10.978;2024-03-08T00:57:15;1.10;98.00
26575;DHT22;67165;50.256;10.978;2024-03-08T00:59:41;1.10;98.00
26575;DHT22;67165;50.256;10.978;2024-03-08T01:02:07;1.10;98.00
26575;DHT22;67165;50.256;10.978;2024-03-08T01:04:34;1.10;98.00
26575;DHT22;67165;50.256;10.978;2024-03-08T01:07:00;1.10;98.00
26575;DHT22;67165;50.256;10.978;2024-03-08T01:09:26;1.00;98.00
26575;DHT22;67165;50.256;10.978;2024-03-08T01:11:53;1.00;98.00
26575;DHT22;67165;50.256;10.978;2024-03-08T01:14:22;1.00;98.00
26575;DHT22;67165;50.256;10.978;2024-03-08T01:16:49;1.00;98.00
26575;DHT22;67165;50.256;10.978;2024-03-08T01:19:15;0.90;98.00
26575;DHT22;67165;50.256;10.978;2024-03-08T01:21:41;0.90;98.00
26575;DHT22;67165;50.256;10.978;2024-03-08T01:24:07;0.90;98.00
26575;DHT22;67165;50.256;10.978;2024-03-08T01:26:33;0.90;98.00
26575;DHT22;67165;50.256;10.978;2024-03-08T01:29:02;0.90;98.00
26575;DHT22;67165;50.256;10.978;2024-03-08T01:31:31;0.90;98.00
26575;DHT22;67165;50.256;10.978;2024-03-08T01:34:00;0.90;98.00
26575;DHT22;67165;50.256;10.978;2024-03-08T01:36:25;0.90;98.00
26575;DHT22;67165;50.256;10.978;2024-03-08T01:38:52;0.90;98.00
26575;DHT22;67165;50.256;10.978;2024-03-08T01:41:18;0.90;98.00
26575;DHT22;67165;50.256;10.978;2024-03-08T01:43:44;0.90;98.00
26575;DHT22;67165;50.256;10.978;2024-03-08T01:46:12;0.90;98.00
26575;DHT22;67165;50.256;10.978;2024-03-08T01:48:40;0.90;98.00
26575;DHT22;67165;50.256;10.978;2024-03-08T01:51:07;0.90;98.00
26575;DHT22;67165;50.256;10.978;2024-03-08T01:53:33;0.90;98.00
26575;DHT22;67165;50.256;10.978;2024-03-08T01:56:00;0.90;98.00
26575;DHT22;67165;50.256;10.978;2024-03-08T01:58:29;0.90;98.00
26575;DHT22;67165;50.256;10.978;2024-03-08T02:00:56;0.90;98.00
26575;DHT22;67165;50.256;10.978;2024-03-08T02:03:23;0.90;98.00
26575;DHT22;67165;50.256;10.978;2024-03-08T02:05:49;0.90;98.00
26575;DHT22;67165;50.256;10.978;2024-03-08T02:08:18;0.90;98.00
26575;DHT22;67165;50.256;10.978;2024-03-08T02:10:45;0.90;98.00
26575;DHT22;67165;50.256;10.978;2024-03-08T02:13:11;0.80;98.00
26575;DHT22;67165;50.256;10.978;2024-03-08T02:15:54;0.80;98.00
26575;DHT22;67165;50.256;10.978;2024-03-08T02:18:21;0.80;98.00
26575;DHT22;67165;50.256;10.978;2024-03-08T02:20:54;0.70;98.00
26575;DHT22;67165;50.256;10.978;2024-03-08T02:23:20;0.80;98.00
26575;DHT22;67165;50.256;10.978;2024-03-08T02:25:47;0.80;98.00
26575;DHT22;67165;50.256;10.978;2024-03-08T02:28:13;0.90;98.00
26575;DHT22;67165;50.256;10.978;2024-03-08T02:30:40;0.90;98.00
26575;DHT22;67165;50.256;10.978;2024-03-08T02:33:06;0.90;98.00
26575;DHT22;67165;50.256;10.978;2024-03-08T02:35:33;0.80;98.00
26575;DHT22;67165;50.256;10.978;2024-03-08T02:37:59;0.80;98.00
26575;DHT22;67165;50.256;10.978;2024-03-08T02:40:26;0.80;98.00
26575;DHT22;67165;50.256;10.978;2024-03-08T02:42:51;0.80;98.00
26575;DHT22;67165;50.256;10.978;2024-03-08T02:45:18;0.90;98.00
26575;DHT22;67165;50.256;10.978;2024-03-08T02:47:44;0.90;98.00
26575;DHT22;67165;50.256;10.978;2024-03-08T02:50:10;0.80;98.00
26575;DHT22;67165;50.256;10.978;2024-03-08T02:52:35;0.90;98.00
26575;DHT22;67165;50.256;10.978;2024-03-08T02:55:04;0.90;98.00
26575;DHT22;67165;50.256;10.978;2024-03-08T02:57:33;0.80;98.00
26575;DHT22;67165;50.256;10.978;2024-03-08T02:59:59;0.70;98.00
26575;DHT22;67165;50.256;10.978;2024-03-08T03:02:25;0.80;98.00
26575;DHT22;67165;50.256;10.978;2024-03-08T03:04:52;0.80;98.00
26575;DHT22;67165;50.256;10.978;2024-03-08T03:07:18;0.70;98.00
26575;DHT22;67165;50.256;10.978;2024-03-08T03:09:44;0.80;98.00
26575;DHT22;67165;50.256;10.978;2024-03-08T03:12:11;0.80;98.00
26575;DHT22;67165;50.256;10.978;2024-03-08T03:14:36;0.80;98.00
26575;DHT22;67165;50.256;10.978;2024-03-08T03:17:05;0.80;98.00
26575;DHT22;67165;50.256;10.978;2024-03-08T03:19:31;0.80;98.00
26575;DHT22;67165;50.256;10.978;2024-03-08T03:21:57;0.80;98.00
26575;DHT22;67165;50.256;10.978;2024-03-08T03:24:23;0.80;98.00
26575;DHT22;67165;50.256;10.978;2024-03-08T03:26:49;0.80;98.00
26575;DHT22;67165;50.256;10.978;2024-03-08T03:29:15;0.80;98.00
26575;DHT22;67165;50.256;10.978;2024-03-08T03:31:42;0.80;98.00
26575;DHT22;67165;50.256;10.978;2024-03-08T03:34:10;0.80;98.00
26575;DHT22;67165;50.256;10.978;2024-03-08T03:36:37;0.80;98.00
26575;DHT22;67165;50.256;10.978;2024-03-08T03:39:08;0.80;98.00
26575;DHT22;67165;50.256;10.978;2024-03-08T03:41:38;0.80;98.00
26575;DHT22;67165;50.256;10.978;2024-03-08T03:44:05;0.80;98.00
26575;DHT22;67165;50.256;10.978;2024-03-08T03:46:35;0.80;98.00
26575;DHT22;67165;50.256;10.978;2024-03-08T03:49:01;0.80;98.00
26575;DHT22;67165;50.256;10.978;2024-03-08T03:51:27;0.80;98.00
26575;DHT22;67165;50.256;10.978;2024-03-08T03:53:52;0.80;98.00
26575;DHT22;67165;50.256;10.978;2024-03-08T03:56:18;0.90;98.00
26575;DHT22;67165;50.256;10.978;2024-03-08T03:58:44;0.80;98.00
26575;DHT22;67165;50.256;10.978;2024-03-08T04:01:10;0.80;98.00
26575;DHT22;67165;50.256;10.978;2024-03-08T04:03:36;0.80;98.00
26575;DHT22;67165;50.256;10.978;2024-03-08T04:06:04;0.80;98.00
26575;DHT22;67165;50.256;10.978;2024-03-08T04:08:30;0.80;98.00
26575;DHT22;67165;50.256;10.978;2024-03-08T04:10:56;0.80;98.00
26575;DHT22;67165;50.256;10.978;2024-03-08T04:13:23;0.80;98.00
26575;DHT22;67165;50.256;10.978;2024-03-08T04:15:49;0.70;98.00
26575;DHT22;67165;50.256;10.978;2024-03-08T04:18:15;0.80;98.00
26575;DHT22;67165;50.256;10.978;2024-03-08T04:20:41;0.80;98.00
26575;DHT22;67165;50.256;10.978;2024-03-08T04:23:06;0.80;98.00
26575;DHT22;67165;50.256;10.978;2024-03-08T04:25:32;0.90;98.00
26575;DHT22;67165;50.256;10.978;2024-03-08T04:27:58;0.90;98.00
26575;DHT22;67165;50.256;10.978;2024-03-08T04:30:24;0.80;98.00
26575;DHT22;67165;50.256;10.978;2024-03-08T04:32:50;0.70;98.00
26575;DHT22;67165;50.256;10.978;2024-03-08T04:35:16;0.70;98.00
26575;DHT22;67165;50.256;10.978;2024-03-08T04:37:42;0.70;98.00
26575;DHT22;67165;50.256;10.978;2024-03-08T04:40:08;0.70;98.00
26575;DHT22;67165;50.256;10.978;2024-03-08T04:42:35;0.70;98.00
26575;DHT22;67165;50.256;10.978;2024-03-08T04:45:02;0.70;98.00
26575;DHT22;67165;50.256;10.978;2024-03-08T04:47:29;0.70;98.00
26575;DHT22;67165;50.256;10.978;2024-03-08T04:49:56;0.70;98.00
26575;DHT22;67165;50.256;10.978;2024-03-08T04:52:22;0.70;98.00
26575;DHT22;67165;50.256;10.978;2024-03-08T04:54:48;0.70;98.00
26575;DHT22;67165;50.256;10.978;2024-03-08T04:57:14;0.70;98.00
26575;DHT22;67165;50.256;10.978;2024-03-08T04:59:39;0.70;98.00
26575;DHT22;67165;50.256;10.978;2024-03-08T05:02:05;0.60;98.00
26575;DHT22;67165;50.256;10.978;2024-03-08T05:04:32;0.60;98.00
26575;DHT22;67165;50.256;10.978;2024-03-08T05:06:58;0.70;98.00
26575;DHT22;67165;50.256;10.978;2024-03-08T05:09:27;0.80;98.00
26575;DHT22;67165;50.256;10.978;2024-03-08T05:11:57;0.80;98.00
26575;DHT22;67165;50.256;10.978;2024-03-08T05:14:25;0.90;98.00
26575;DHT22;67165;50.256;10.978;2024-03-08T05:16:51;0.90;98.00
26575;DHT22;67165;50.256;10.978;2024-03-08T05:19:17;0.90;98.00
26575;DHT22;67165;50.256;10.978;2024-03-08T05:21:44;0.90;98.00
26575;DHT22;67165;50.256;10.978;2024-03-08T05:24:10;0.90;98.00
26575;DHT22;67165;50.256;10.978;2024-03-08T05:26:36;0.90;98.00
26575;DHT22;67165;50.256;10.978;2024-03-08T05:29:05;0.90;98.00
26575;DHT22;67165;50.256;10.978;2024-03-08T05:31:52;0.90;98.00
26575;DHT22;67165;50.256;10.978;2024-03-08T05:34:18;1.00;98.00
26575;DHT22;67165;50.256;10.978;2024-03-08T05:36:45;1.00;98.00
26575;DHT22;67165;50.256;10.978;2024-03-08T05:39:15;1.00;98.00
26575;DHT22;67165;50.256;10.978;2024-03-08T05:41:42;1.00;98.00
26575;DHT22;67165;50.256;10.978;2024-03-08T05:44:08;0.90;98.00
26575;DHT22;67165;50.256;10.978;2024-03-08T05:46:34;0.90;98.00
26575;DHT22;67165;50.256;10.978;2024-03-08T05:49:06;0.90;98.00
26575;DHT22;67165;50.256;10.978;2024-03-08T05:51:36;0.90;98.00
26575;DHT22;67165;50.256;10.978;2024-03-08T05:54:03;0.90;98.00
26575;DHT22;67165;50.256;10.978;2024-03-08T05:56:31;0.90;98.00
26575;DHT22;67165;50.256;10.978;2024-03-08T05:58:57;0.90;98.00
26575;DHT22;67165;50.256;10.978;2024-03-08T06:01:24;0.90;98.00
26575;DHT22;67165;50.256;10.978;2024-03-08T06:03:50;0.90;98.00
26575;DHT22;67165;50.256;10.978;2024-03-08T06:06:16;0.90;98.00
26575;DHT22;67165;50.256;10.978;2024-03-08T06:08:43;0.90;98.00
26575;DHT22;67165;50.256;10.978;2024-03-08T06:11:09;0.90;98.00
26575;DHT22;67165;50.256;10.978;2024-03-08T06:13:35;0.80;98.00
26575;DHT22;67165;50.256;10.978;2024-03-08T06:16:01;0.80;98.00
26575;DHT22;67165;50.256;10.978;2024-03-08T06:18:33;0.80;98.00
26575;DHT22;67165;50.256;10.978;2024-03-08T06:20:59;0.90;98.00
26575;DHT22;67165;50.256;10.978;2024-03-08T06:23:25;0.90;98.00
26575;DHT22;67165;50.256;10.978;2024-03-08T06:25:53;0.90;98.00
26575;DHT22;67165;50.256;10.978;2024-03-08T06:28:20;0.90;98.00
26575;DHT22;67165;50.256;10.978;2024-03-08T06:30:45;0.90;98.00
26575;DHT22;67165;50.256;10.978;2024-03-08T06:33:11;1.00;98.00
26575;DHT22;67165;50.256;10.978;2024-03-08T06:35:37;1.10;98.00
26575;DHT22;67165;50.256;10.978;2024-03-08T06:38:05;1.10;98.00
26575;DHT22;67165;50.256;10.978;2024-03-08T06:40:31;1.20;98.00
26575;DHT22;67165;50.256;10.978;2024-03-08T06:42:57;1.20;98.00
26575;DHT22;67165;50.256;10.978;2024-03-08T06:45:23;1.20;98.00
26575;DHT22;67165;50.256;10.978;2024-03-08T06:47:49;1.30;98.00
26575;DHT22;67165;50.256;10.978;2024-03-08T06:50:15;1.40;98.00
26575;DHT22;67165;50.256;10.978;2024-03-08T06:52:41;1.40;98.00
26575;DHT22;67165;50.256;10.978;2024-03-08T06:55:12;1.50;98.00
26575;DHT22;67165;50.256;10.978;2024-03-08T06:57:40;1.40;98.00
26575;DHT22;67165;50.256;10.978;2024-03-08T07:00:07;1.40;98.00
26575;DHT22;67165;50.256;10.978;2024-03-08T07:02:40;1.40;98.00
26575;DHT22;67165;50.256;10.978;2024-03-08T07:05:06;1.50;98.00
26575;DHT22;67165;50.256;10.978;2024-03-08T07:07:36;1.50;98.00
26575;DHT22;67165;50.256;10.978;2024-03-08T07:10:01;1.50;98.00
26575;DHT22;67165;50.256;10.978;2024-03-08T07:12:27;1.50;98.00
26575;DHT22;67165;50.256;10.978;2024-03-08T07:14:53;1.60;98.00
26575;DHT22;67165;50.256;10.978;2024-03-08T07:17:19;1.70;98.00
26575;DHT22;67165;50.256;10.978;2024-03-08T07:19:44;1.70;98.00
26575;DHT22;67165;50.256;10.978;2024-03-08T07:22:10;1.70;98.00
26575;DHT22;67165;50.256;10.978;2024-03-08T07:24:36;1.80;98.00
26575;DHT22;67165;50.256;10.978;2024-03-08T07:27:04;1.80;98.00
26575;DHT22;67165;50.256;10.978;2024-03-08T07:29:31;1.90;98.00
26575;DHT22;67165;50.256;10.978;2024-03-08T07:31:56;1.90;98.00
26575;DHT22;67165;50.256;10.978;2024-03-08T07:34:28;1.90;98.00
26575;DHT22;67165;50.256;10.978;2024-03-08T07:36:58;2.00;98.00
26575;DHT22;67165;50.256;10.978;2024-03-08T07:39:24;2.10;98.00
26575;DHT22;67165;50.256;10.978;2024-03-08T07:41:50;2.20;98.00
26575;DHT22;67165;50.256;10.978;2024-03-08T07:44:18;2.30;98.00
26575;DHT22;67165;50.256;10.978;2024-03-08T07:46:44;2.40;98.00
26575;DHT22;67165;50.256;10.978;2024-03-08T07:49:10;2.50;98.00
26575;DHT22;67165;50.256;10.978;2024-03-08T07:51:37;2.60;98.00
26575;DHT22;67165;50.256;10.978;2024-03-08T07:54:04;2.80;98.00
26575;DHT22;67165;50.256;10.978;2024-03-08T07:56:30;2.90;98.00
26575;DHT22;67165;50.256;10.978;2024-03-08T07:58:56;3.00;98.00
26575;DHT22;67165;50.256;10.978;2024-03-08T08:01:22;3.10;98.00
26575;DHT22;67165;50.256;10.978;2024-03-08T08:03:48;3.20;98.00
26575;DHT22;67165;50.256;10.978;2024-03-08T08:06:16;3.40;98.00
26575;DHT22;67165;50.256;10.978;2024-03-08T08:08:42;3.50;98.00
26575;DHT22;67165;50.256;10.978;2024-03-08T08:11:08;3.60;98.00
26575;DHT22;67165;50.256;10.978;2024-03-08T08:13:35;3.70;98.00
26575;DHT22;67165;50.256;10.978;2024-03-08T08:16:02;3.90;98.00
26575;DHT22;67165;50.256;10.978;2024-03-08T08:18:28;3.90;98.00
26575;DHT22;67165;50.256;10.978;2024-03-08T08:20:55;3.80;98.00
26575;DHT22;67165;50.256;10.978;2024-03-08T08:23:21;3.70;98.00
26575;DHT22;67165;50.256;10.978;2024-03-08T08:25:47;3.70;98.00
26575;DHT22;67165;50.256;10.978;2024-03-08T08:28:16;3.70;98.00
26575;DHT22;67165;50.256;10.978;2024-03-08T08:30:46;3.90;98.00
26575;DHT22;67165;50.256;10.978;2024-03-08T08:33:11;3.80;98.00
26575;DHT22;67165;50.256;10.978;2024-03-08T08:35:38;3.90;98.00
26575;DHT22;67165;50.256;10.978;2024-03-08T08:38:04;3.90;98.00
26575;DHT22;67165;50.256;10.978;2024-03-08T08:40:30;3.90;98.00
26575;DHT22;67165;50.256;10.978;2024-03-08T08:42:58;3.90;98.00
26575;DHT22;67165;50.256;10.978;2024-03-08T08:45:24;4.00;98.00
26575;DHT22;67165;50.256;10.978;2024-03-08T08:47:49;4.00;98.00
26575;DHT22;67165;50.256;10.978;2024-03-08T08:50:15;4.10;98.00
26575;DHT22;67165;50.256;10.978;2024-03-08T08:52:42;4.20;98.00
26575;DHT22;67165;50.256;10.978;2024-03-08T08:55:10;4.20;98.00
26575;DHT22;67165;50.256;10.978;2024-03-08T08:57:43;4.20;98.00
26575;DHT22;67165;50.256;10.978;2024-03-08T09:00:09;4.30;98.00
26575;DHT22;67165;50.256;10.978;2024-03-08T09:02:40;4.40;98.00
26575;DHT22;67165;50.256;10.978;2024-03-08T09:05:07;4.50;98.00
26575;DHT22;67165;50.256;10.978;2024-03-08T09:07:36;4.50;98.00
26575;DHT22;67165;50.256;10.978;2024-03-08T09:10:03;4.50;98.00
26575;DHT22;67165;50.256;10.978;2024-03-08T09:12:29;4.60;98.00
26575;DHT22;67165;50.256;10.978;2024-03-08T09:14:55;4.70;98.00
26575;DHT22;67165;50.256;10.978;2024-03-08T09:17:21;4.70;98.00
26575;DHT22;67165;50.256;10.978;2024-03-08T09:19:47;4.80;98.00
26575;DHT22;67165;50.256;10.978;2024-03-08T09:22:13;4.90;98.00
26575;DHT22;67165;50.256;10.978;2024-03-08T09:24:39;5.00;98.00
26575;DHT22;67165;50.256;10.978;2024-03-08T09:27:05;5.00;98.00
26575;DHT22;67165;50.256;10.978;2024-03-08T09:29:31;5.20;98.00
26575;DHT22;67165;50.256;10.978;2024-03-08T09:31:57;5.20;98.00
26575;DHT22;67165;50.256;10.978;2024-03-08T09:34:22;5.40;98.00
26575;DHT22;67165;50.256;10.978;2024-03-08T09:36:49;5.50;98.00
26575;DHT22;67165;50.256;10.978;2024-03-08T09:39:16;5.50;98.00
26575;DHT22;67165;50.256;10.978;2024-03-08T09:41:46;5.60;98.00
26575;DHT22;67165;50.256;10.978;2024-03-08T09:44:14;5.60;98.00
26575;DHT22;67165;50.256;10.978;2024-03-08T09:46:40;5.60;98.00
26575;DHT22;67165;50.256;10.978;2024-03-08T09:49:09;5.70;98.00
26575;DHT22;67165;50.256;10.978;2024-03-08T09:51:37;5.80;98.00
26575;DHT22;67165;50.256;10.978;2024-03-08T09:54:06;5.90;98.00
26575;DHT22;67165;50.256;10.978;2024-03-08T09:56:39;6.00;98.00
26575;DHT22;67165;50.256;10.978;2024-03-08T09:59:07;6.10;98.00
26575;DHT22;67165;50.256;10.978;2024-03-08T10:01:51;6.10;98.00
26575;DHT22;67165;50.256;10.978;2024-03-08T10:04:18;6.20;98.00
26575;DHT22;67165;50.256;10.978;2024-03-08T10:06:45;6.10;98.00
26575;DHT22;67165;50.256;10.978;2024-03-08T10:09:12;6.10;98.00
26575;DHT22;67165;50.256;10.978;2024-03-08T10:11:40;6.20;98.00
26575;DHT22;67165;50.256;10.978;2024-03-08T10:14:08;6.30;98.00
26575;DHT22;67165;50.256;10.978;2024-03-08T10:16:34;6.10;98.00
26575;DHT22;67165;50.256;10.978;2024-03-08T10:19:00;6.30;98.00
26575;DHT22;67165;50.256;10.978;2024-03-08T10:21:26;6.30;98.00
26575;DHT22;67165;50.256;10.978;2024-03-08T10:23:52;6.40;98.00
26575;DHT22;67165;50.256;10.978;2024-03-08T10:26:19;6.40;98.00
26575;DHT22;67165;50.256;10.978;2024-03-08T10:28:48;6.40;98.00
26575;DHT22;67165;50.256;10.978;2024-03-08T10:31:15;6.40;98.00
26575;DHT22;67165;50.256;10.978;2024-03-08T10:33:41;6.40;98.00
26575;DHT22;67165;50.256;10.978;2024-03-08T10:36:08;6.50;98.00
26575;DHT22;67165;50.256;10.978;2024-03-08T10:38:38;6.60;98.00
26575;DHT22;67165;50.256;10.978;2024-03-08T10:41:06;6.60;98.00
26575;DHT22;67165;50.256;10.978;2024-03-08T10:43:52;6.70;98.00
26575;DHT22;67165;50.256;10.978;2024-03-08T10:46:42;6.80;98.00
26575;DHT22;67165;50.256;10.978;2024-03-08T10:49:16;6.90;98.00
26575;DHT22;67165;50.256;10.978;2024-03-08T10:51:43;6.90;98.00
26575;DHT22;67165;50.256;10.978;2024-03-08T10:54:10;7.00;98.00
26575;DHT22;67165;50.256;10.978;2024-03-08T10:56:37;7.10;98.00
26575;DHT22;67165;50.256;10.978;2024-03-08T10:59:07;7.10;98.00
26575;DHT22;67165;50.256;10.978;2024-03-08T11:01:34;7.10;98.00
26575;DHT22;67165;50.256;10.978;2024-03-08T11:04:00;7.20;98.00
26575;DHT22;67165;50.256;10.978;2024-03-08T11:06:31;7.20;98.00
26575;DHT22;67165;50.256;10.978;2024-03-08T11:09:43;7.30;98.00
26575;DHT22;67165;50.256;10.978;2024-03-08T11:12:22;7.30;98.00
26575;DHT22;67165;50.256;10.978;2024-03-08T11:14:54;7.30;98.00
26575;DHT22;67165;50.256;10.978;2024-03-08T11:20:00;7.50;98.00
26575;DHT22;67165;50.256;10.978;2024-03-08T11:22:32;7.40;98.00
26575;DHT22;67165;50.256;10.978;2024-03-08T11:25:09;7.40;98.00
26575;DHT22;67165;50.256;10.978;2024-03-08T11:27:38;7.40;98.00
26575;DHT22;67165;50.256;10.978;2024-03-08T11:30:08;7.40;98.00
26575;DHT22;67165;50.256;10.978;2024-03-08T11:32:38;7.50;98.00
26575;DHT22;67165;50.256;10.978;2024-03-08T11:35:08;7.50;98.00
26575;DHT22;67165;50.256;10.978;2024-03-08T11:37:44;7.50;98.00
26575;DHT22;67165;50.256;10.978;2024-03-08T11:40:13;7.50;98.00
26575;DHT22;67165;50.256;10.978;2024-03-08T11:42:49;7.50;98.00
26575;DHT22;67165;50.256;10.978;2024-03-08T11:45:17;7.60;98.00
26575;DHT22;67165;50.256;10.978;2024-03-08T11:47:43;7.70;98.00
26575;DHT22;67165;50.256;10.978;2024-03-08T11:50:15;7.70;98.00
26575;DHT22;67165;50.256;10.978;2024-03-08T11:52:41;7.70;98.00
26575;DHT22;67165;50.256;10.978;2024-03-08T11:55:08;7.70;98.00
26575;DHT22;67165;50.256;10.978;2024-03-08T11:57:34;7.80;98.00
26575;DHT22;67165;50.256;10.978;2024-03-08T12:00:00;7.90;98.00
26575;DHT22;67165;50.256;10.978;2024-03-08T12:02:35;7.90;98.00
26575;DHT22;67165;50.256;10.978;2024-03-08T12:05:05;7.90;98.00
26575;DHT22;67165;50.256;10.978;2024-03-08T12:07:35;8.10;98.00
26575;DHT22;67165;50.256;10.978;2024-03-08T12:10:23;8.00;98.00
26575;DHT22;67165;50.256;10.978;2024-03-08T12:12:52;8.00;98.00
26575;DHT22;67165;50.256;10.978;2024-03-08T12:15:19;8.00;98.00
26575;DHT22;67165;50.256;10.978;2024-03-08T12:17:48;8.10;98.00
26575;DHT22;67165;50.256;10.978;2024-03-08T12:20:24;8.30;98.00
26575;DHT22;67165;50.256;10.978;2024-03-08T12:22:59;8.30;98.00
26575;DHT22;67165;50.256;10.978;2024-03-08T12:25:31;8.30;98.00
26575;DHT22;67165;50.256;10.978;2024-03-08T12:28:11;8.40;98.00
26575;DHT22;67165;50.256;10.978;2024-03-08T12:30:49;8.40;98.00
26575;DHT22;67165;50.256;10.978;2024-03-08T12:33:20;8.40;98.00
26575;DHT22;67165;50.256;10.978;2024-03-08T12:35:53;8.50;98.00
26575;DHT22;67165;50.256;10.978;2024-03-08T12:38:27;8.50;98.00
26575;DHT22;67165;50.256;10.978;2024-03-08T12:40:58;8.50;98.00
26575;DHT22;67165;50.256;10.978;2024-03-08T12:43:24;8.50;98.00
26575;DHT22;67165;50.256;10.978;2024-03-08T12:45:50;8.60;98.00
26575;DHT22;67165;50.256;10.978;2024-03-08T12:48:17;8.70;98.00
26575;DHT22;67165;50.256;10.978;2024-03-08T12:50:42;8.90;98.00
26575;DHT22;67165;50.256;10.978;2024-03-08T12:53:13;8.90;98.00
26575;DHT22;67165;50.256;10.978;2024-03-08T12:55:39;8.90;98.00
26575;DHT22;67165;50.256;10.978;2024-03-08T12:58:06;8.90;98.00
26575;DHT22;67165;50.256;10.978;2024-03-08T13:00:34;8.90;98.00
26575;DHT22;67165;50.256;10.978;2024-03-08T13:03:02;8.90;98.00
26575;DHT22;67165;50.256;10.978;2024-03-08T13:05:28;9.00;98.00
26575;DHT22;67165;50.256;10.978;2024-03-08T13:07:55;9.00;98.00
26575;DHT22;67165;50.256;10.978;2024-03-08T13:10:22;9.00;98.00
26575;DHT22;67165;50.256;10.978;2024-03-08T13:12:48;9.00;98.00
26575;DHT22;67165;50.256;10.978;2024-03-08T13:15:14;9.10;98.00
26575;DHT22;67165;50.256;10.978;2024-03-08T13:17:47;9.10;98.00
26575;DHT22;67165;50.256;10.978;2024-03-08T13:20:14;9.20;98.00
26575;DHT22;67165;50.256;10.978;2024-03-08T13:22:45;9.20;98.00
26575;DHT22;67165;50.256;10.978;2024-03-08T13:25:11;9.20;98.00
26575;DHT22;67165;50.256;10.978;2024-03-08T13:27:42;9.30;98.00
26575;DHT22;67165;50.256;10.978;2024-03-08T13:30:11;9.30;98.00
26575;DHT22;67165;50.256;10.978;2024-03-08T13:32:44;9.30;98.00
26575;DHT22;67165;50.256;10.978;2024-03-08T13:35:13;9.50;98.00
26575;DHT22;67165;50.256;10.978;2024-03-08T13:37:40;9.50;98.00
26575;DHT22;67165;50.256;10.978;2024-03-08T13:40:07;9.50;98.00
26575;DHT22;67165;50.256;10.978;2024-03-08T13:42:41;9.60;98.00
26575;DHT22;67165;50.256;10.978;2024-03-08T13:45:09;9.70;98.00
26575;DHT22;67165;50.256;10.978;2024-03-08T13:47:41;9.70;98.00
26575;DHT22;67165;50.256;10.978;2024-03-08T13:50:08;9.80;98.00
26575;DHT22;67165;50.256;10.978;2024-03-08T13:52:37;9.80;98.00
26575;DHT22;67165;50.256;10.978;2024-03-08T13:55:04;10.00;98.00
26575;DHT22;67165;50.256;10.978;2024-03-08T13:57:31;9.90;98.00
26575;DHT22;67165;50.256;10.978;2024-03-08T13:59:58;10.00;98.00
26575;DHT22;67165;50.256;10.978;2024-03-08T14:02:24;10.00;98.00
26575;DHT22;67165;50.256;10.978;2024-03-08T14:04:54;10.00;98.00
26575;DHT22;67165;50.256;10.978;2024-03-08T14:07:20;10.00;98.00
26575;DHT22;67165;50.256;10.978;2024-03-08T14:09:46;10.00;98.00
26575;DHT22;67165;50.256;10.978;2024-03-08T14:12:12;10.00;98.00
26575;DHT22;67165;50.256;10.978;2024-03-08T14:14:41;10.00;98.00
26575;DHT22;67165;50.256;10.978;2024-03-08T14:17:07;10.00;98.00
26575;DHT22;67165;50.256;10.978;2024-03-08T14:19:35;10.00;98.00
26575;DHT22;67165;50.256;10.978;2024-03-08T14:22:01;10.00;98.00
26575;DHT22;67165;50.256;10.978;2024-03-08T14:24:30;9.90;98.00
26575;DHT22;67165;50.256;10.978;2024-03-08T14:26:56;9.90;98.00
26575;DHT22;67165;50.256;10.978;2024-03-08T14:29:27;9.90;98.00
26575;DHT22;67165;50.256;10.978;2024-03-08T14:31:58;10.00;98.00
26575;DHT22;67165;50.256;10.978;2024-03-08T14:34:25;9.90;98.00
26575;DHT22;67165;50.256;10.978;2024-03-08T14:36:55;9.90;98.00
26575;DHT22;67165;50.256;10.978;2024-03-08T14:39:21;9.80;98.00
26575;DHT22;67165;50.256;10.978;2024-03-08T14:41:52;9.70;98.00
26575;DHT22;67165;50.256;10.978;2024-03-08T14:44:22;9.70;98.00
26575;DHT22;67165;50.256;10.978;2024-03-08T14:46:57;9.70;98.00
26575;DHT22;67165;50.256;10.978;2024-03-08T14:49:24;9.70;98.00
26575;DHT22;67165;50.256;10.978;2024-03-08T14:51:51;9.70;98.00
26575;DHT22;67165;50.256;10.978;2024-03-08T14:54:17;9.70;98.00
26575;DHT22;67165;50.256;10.978;2024-03-08T14:56:48;9.80;98.00
26575;DHT22;67165;50.256;10.978;2024-03-08T14:59:16;9.90;98.00
26575;DHT22;67165;50.256;10.978;2024-03-08T15:01:42;9.90;98.00
26575;DHT22;67165;50.256;10.978;2024-03-08T15:04:10;9.90;98.00
26575;DHT22;67165;50.256;10.978;2024-03-08T15:06:38;9.90;98.00
26575;DHT22;67165;50.256;10.978;2024-03-08T15:09:05;9.90;98.00
26575;DHT22;67165;50.256;10.978;2024-03-08T15:11:41;9.80;98.00
26575;DHT22;67165;50.256;10.978;2024-03-08T15:14:08;9.80;98.00
26575;DHT22;67165;50.256;10.978;2024-03-08T15:16:40;9.80;98.00
26575;DHT22;67165;50.256;10.978;2024-03-08T15:19:08;9.80;98.00
26575;DHT22;67165;50.256;10.978;2024-03-08T15:21:34;9.70;98.00
26575;DHT22;67165;50.256;10.978;2024-03-08T15:24:01;9.70;98.00
26575;DHT22;67165;50.256;10.978;2024-03-08T15:26:28;9.70;98.00
26575;DHT22;67165;50.256;10.978;2024-03-08T15:28:56;9.60;98.00
26575;DHT22;67165;50.256;10.978;2024-03-08T15:31:22;9.60;98.00
26575;DHT22;67165;50.256;10.978;2024-03-08T15:33:51;9.50;98.00
26575;DHT22;67165;50.256;10.978;2024-03-08T15:36:24;9.40;98.00